Time;durP1;ratioP1;P1;durP2;ratioP2;P2;SDS_P1;SDS_P2;PMS_P1;PMS_P2;Temp;Humidity;BMP_temperature;BMP_pressure;BME280_temperature;BME280_humidity;BME280_pressure;Samples;Min_cycle;Max_cycle;Signal;HPM_P1;HPM_P2
2023/08/31 00:00:19;;;;;;;4.10;2.58;;;;;;;-145.69;57.39;52004.75;5133790;27;20239;-82
2023/08/31 00:02:50;;;;;;;4.55;2.22;;;;;;;-145.69;57.55;52024.56;5134845;27;20239;-82
2023/08/31 00:05:17;;;;;;;5.38;2.72;;;;;;;-145.69;57.05;51973.06;5134259;27;20185;-83
2023/08/31 00:07:43;;;;;;;5.35;2.85;;;;;;;-145.69;56.95;52006.75;5133852;27;20224;-82
2023/08/31 00:10:13;;;;;;;3.08;2.40;;;;;;;-145.69;57.11;52020.59;5135006;27;20201;-82
2023/08/31 00:12:40;;;;;;;5.93;2.72;;;;;;;-145.69;56.48;52006.75;5133936;27;20663;-82
2023/08/31 00:15:09;;;;;;;6.65;2.83;;;;;;;-145.69;56.77;52028.53;5135823;27;20197;-82
2023/08/31 00:17:36;;;;;;;6.32;2.67;;;;;;;-145.69;56.70;51996.84;5133486;28;20220;-83
2023/08/31 00:20:05;;;;;;;10.68;2.78;;;;;;;-145.69;56.53;52024.56;5134725;27;20225;-82
2023/08/31 00:22:32;;;;;;;6.80;3.08;;;;;;;-145.69;57.79;52006.75;5132702;27;20433;-82
2023/08/31 00:25:01;;;;;;;6.32;3.08;;;;;;;-145.69;56.73;51996.84;5129810;27;20200;-82
2023/08/31 00:27:29;;;;;;;4.68;2.90;;;;;;;-145.69;56.49;52008.72;5134672;27;20258;-82
2023/08/31 00:29:57;;;;;;;8.98;2.95;;;;;;;-145.69;56.34;52054.25;5137308;27;20192;-82
2023/08/31 00:32:24;;;;;;;3.95;2.63;;;;;;;-145.69;56.75;52000.81;5138041;27;20201;-82
2023/08/31 00:34:53;;;;;;;3.97;2.67;;;;;;;-145.69;56.55;51990.91;5137986;27;20201;-82
2023/08/31 00:37:23;;;;;;;6.32;3.05;;;;;;;-145.69;56.69;52012.69;5117659;28;20236;-82
2023/08/31 00:39:52;;;;;;;4.80;2.88;;;;;;;-145.69;56.99;52004.75;5117391;28;20201;-82
2023/08/31 00:42:19;;;;;;;4.82;2.65;;;;;;;-145.69;56.64;52006.75;5116479;28;20233;-82
2023/08/31 00:44:48;;;;;;;6.57;2.88;;;;;;;-145.69;56.44;52000.81;5117423;28;20202;-82
2023/08/31 00:47:23;;;;;;;6.93;3.25;;;;;;;-145.69;56.98;51994.88;5136000;27;20228;-83
2023/08/31 00:49:50;;;;;;;11.90;2.88;;;;;;;-145.69;57.02;52040.41;5137673;27;20203;-83
2023/08/31 00:52:17;;;;;;;4.30;2.88;;;;;;;-145.69;56.95;52010.69;5137893;27;21803;-82
2023/08/31 00:54:47;;;;;;;7.70;3.10;;;;;;;-145.69;56.26;52028.53;5138261;27;20197;-82
2023/08/31 00:57:13;;;;;;;7.18;2.88;;;;;;;-145.69;56.65;52000.81;5136959;27;20228;-82
2023/08/31 00:59:43;;;;;;;6.97;2.90;;;;;;;-145.69;56.46;52018.63;5136398;27;20243;-82
2023/08/31 01:02:20;;;;;;;6.25;3.28;;;;;;;-145.69;55.78;51998.81;5136284;27;20211;-81
2023/08/31 01:04:52;;;;;;;4.97;2.88;;;;;;;-145.69;56.12;52008.72;5115794;27;20569;-82
2023/08/31 01:07:30;;;;;;;7.18;3.75;;;;;;;-145.69;55.87;51981.00;5120464;27;20193;-81
2023/08/31 01:10:09;;;;;;;8.88;3.25;;;;;;;-145.69;55.79;52026.53;5136214;27;20219;-82
2023/08/31 01:12:45;;;;;;;8.30;3.70;;;;;;;-145.69;55.74;51977.03;5136364;27;20693;-82
2023/08/31 01:15:12;;;;;;;6.30;3.75;;;;;;;-145.69;56.40;52012.69;5135421;27;20348;-81
2023/08/31 01:17:49;;;;;;;5.35;3.42;;;;;;;-145.69;56.34;51990.91;5136039;27;20224;-81
2023/08/31 01:20:24;;;;;;;8.18;3.45;;;;;;;-145.69;56.21;51996.84;5135772;27;20184;-82
2023/08/31 01:22:58;;;;;;;6.43;2.88;;;;;;;-145.69;55.67;52016.66;5135825;27;20571;-82
2023/08/31 01:25:27;;;;;;;5.32;3.30;;;;;;;-145.69;55.94;52016.66;5136032;27;20207;-81
2023/08/31 01:27:54;;;;;;;6.57;3.17;;;;;;;-145.69;55.63;51994.88;5135900;27;20226;-81
2023/08/31 01:30:20;;;;;;;7.75;3.10;;;;;;;-145.69;55.48;52020.59;5135503;27;20459;-82
2023/08/31 01:32:48;;;;;;;7.05;3.00;;;;;;;-145.69;56.02;52034.47;5135971;27;20193;-82
2023/08/31 01:35:19;;;;;;;5.45;2.67;;;;;;;-145.69;55.90;52008.72;5136369;27;20643;-82
2023/08/31 01:37:51;;;;;;;4.53;2.65;;;;;;;-145.69;55.39;52032.47;5136256;27;20231;-81
2023/08/31 01:40:23;;;;;;;4.03;2.70;;;;;;;-145.69;55.20;51992.88;5135097;27;20678;-82
2023/08/31 01:42:53;;;;;;;7.10;2.78;;;;;;;-145.69;55.10;52016.66;5136359;27;20255;-82
2023/08/31 01:45:23;;;;;;;4.22;2.63;;;;;;;-145.69;55.46;52022.59;5136857;27;20212;-82
2023/08/31 01:47:50;;;;;;;4.72;2.50;;;;;;;-145.69;55.88;52062.19;5136890;27;20280;-82
2023/08/31 01:50:17;;;;;;;3.40;2.38;;;;;;;-145.69;56.26;52048.31;5136273;27;20219;-82
2023/08/31 01:52:46;;;;;;;3.58;2.65;;;;;;;-145.69;56.77;52040.41;5136496;27;20235;-82
2023/08/31 01:55:15;;;;;;;6.35;3.55;;;;;;;-145.69;56.98;52008.72;5137003;27;20200;-82
2023/08/31 01:57:42;;;;;;;6.15;3.00;;;;;;;-145.69;56.84;52006.75;5136010;27;20273;-82
2023/08/31 02:00:11;;;;;;;6.63;3.03;;;;;;;-145.69;56.57;52016.66;5135727;27;20729;-82
2023/08/31 02:02:38;;;;;;;5.20;2.90;;;;;;;-145.69;56.84;52016.66;5136142;27;20611;-81
2023/08/31 02:05:05;;;;;;;5.25;3.08;;;;;;;-145.69;56.94;52060.22;5135695;27;20192;-82
2023/08/31 02:07:32;;;;;;;5.97;2.92;;;;;;;-145.69;56.99;52030.50;5136625;27;20197;-82
2023/08/31 02:10:01;;;;;;;6.38;2.70;;;;;;;-145.69;56.27;52004.75;5136842;27;20197;-82
2023/08/31 02:12:28;;;;;;;6.13;3.00;;;;;;;-145.69;56.60;52016.66;5115341;28;20193;-82
2023/08/31 02:14:56;;;;;;;6.28;3.20;;;;;;;-145.69;56.50;52004.75;5115778;28;20201;-82
2023/08/31 02:17:27;;;;;;;6.43;3.13;;;;;;;-145.69;56.40;52028.53;5130214;27;20224;-82
2023/08/31 02:19:53;;;;;;;4.30;2.85;;;;;;;-145.69;57.17;52044.38;5136071;27;20705;-82
2023/08/31 02:22:20;;;;;;;4.63;2.72;;;;;;;-145.69;57.06;52018.63;5136192;27;20280;-82
2023/08/31 02:24:47;;;;;;;5.47;3.47;;;;;;;-145.69;57.20;52024.56;5137017;27;20204;-82
2023/08/31 02:27:13;;;;;;;4.82;3.17;;;;;;;-145.69;57.15;52040.41;5136361;27;20287;-82
2023/08/31 02:29:40;;;;;;;5.60;3.30;;;;;;;-145.69;56.90;52006.75;5134801;27;20201;-82
2023/08/31 02:32:07;;;;;;;5.22;2.70;;;;;;;-145.69;57.20;52008.72;5135244;27;20205;-82
2023/08/31 02:34:35;;;;;;;5.40;2.72;;;;;;;-145.69;56.97;52016.66;5135227;27;20675;-83
2023/08/31 02:37:02;;;;;;;6.32;2.75;;;;;;;-145.69;57.00;52012.69;5135845;27;20211;-82
2023/08/31 02:39:30;;;;;;;5.20;2.85;;;;;;;-145.69;57.08;51988.91;5136015;27;20200;-82
2023/08/31 02:41:57;;;;;;;6.97;3.25;;;;;;;-145.69;57.26;52000.81;5135460;27;20224;-82
2023/08/31 02:44:26;;;;;;;6.30;3.13;;;;;;;-145.69;57.26;52026.53;5136114;27;20205;-82
2023/08/31 02:46:53;;;;;;;6.10;2.60;;;;;;;-145.69;57.03;52024.56;5135206;27;20197;-82
2023/08/31 02:49:19;;;;;;;7.18;3.35;;;;;;;-145.69;56.98;52018.63;5135691;27;20783;-82
2023/08/31 02:51:49;;;;;;;6.82;3.03;;;;;;;-145.69;56.28;51996.84;5135153;27;20283;-82
2023/08/31 02:54:15;;;;;;;6.70;2.75;;;;;;;-145.69;56.85;52040.41;5135217;27;20220;-82
2023/08/31 02:56:42;;;;;;;6.90;3.20;;;;;;;-145.69;56.97;52024.56;5134755;27;20196;-83
2023/08/31 02:59:11;;;;;;;5.05;3.10;;;;;;;-145.69;57.08;52004.75;5134978;27;20221;-82
2023/08/31 03:01:38;;;;;;;6.78;2.85;;;;;;;-145.69;56.75;52028.53;5135232;27;20624;-82
2023/08/31 03:04:06;;;;;;;6.05;2.88;;;;;;;-145.69;56.72;52042.38;5135227;27;20630;-82
2023/08/31 03:06:33;;;;;;;7.45;2.75;;;;;;;-145.69;57.02;52016.66;5135065;27;20208;-82
2023/08/31 03:09:01;;;;;;;3.70;2.47;;;;;;;-145.69;56.88;52024.56;5134210;27;20219;-81
2023/08/31 03:11:28;;;;;;;7.05;3.05;;;;;;;-145.69;56.83;52038.44;5134856;27;20197;-82
2023/08/31 03:13:54;;;;;;;4.85;2.90;;;;;;;-145.69;56.80;52020.59;5135356;27;20533;-82
2023/08/31 03:16:21;;;;;;;7.25;2.97;;;;;;;-145.69;56.67;52016.66;5135911;27;20188;-82
2023/08/31 03:18:48;;;;;;;5.28;2.50;;;;;;;-145.69;56.32;52028.53;5135044;27;20221;-82
2023/08/31 03:21:14;;;;;;;5.70;2.90;;;;;;;-145.69;56.58;52024.56;5134951;27;20232;-82
2023/08/31 03:23:41;;;;;;;6.25;3.25;;;;;;;-145.69;56.54;52004.75;5134121;27;20299;-82
2023/08/31 03:26:12;;;;;;;4.35;2.83;;;;;;;-145.69;56.64;52032.47;5134330;27;20270;-82
2023/08/31 03:28:41;;;;;;;4.35;2.75;;;;;;;-145.69;56.70;51986.94;5133879;27;20197;-82
2023/08/31 03:31:09;;;;;;;5.40;3.05;;;;;;;-145.69;56.45;52014.66;5134236;27;20249;-82
2023/08/31 03:33:35;;;;;;;5.70;2.70;;;;;;;-145.69;56.59;52028.53;5134725;27;20197;-82
2023/08/31 03:36:04;;;;;;;6.25;3.35;;;;;;;-145.69;56.43;51998.81;5134301;28;20193;-82
2023/08/31 03:38:31;;;;;;;7.68;3.40;;;;;;;-145.69;56.33;52026.53;5134590;27;20307;-82
2023/08/31 03:40:58;;;;;;;5.93;3.05;;;;;;;-145.69;56.26;52036.44;5134264;28;20201;-82
2023/08/31 03:43:26;;;;;;;6.15;2.63;;;;;;;-145.69;56.41;52016.66;5134363;27;20232;-82
2023/08/31 03:45:56;;;;;;;4.28;2.40;;;;;;;-145.69;56.51;52000.81;5134695;28;20643;-82
2023/08/31 03:48:23;;;;;;;7.05;3.20;;;;;;;-145.69;56.64;51998.81;5132665;28;20284;-82
2023/08/31 03:50:50;;;;;;;3.20;2.40;;;;;;;-145.69;56.51;52030.50;5134279;28;20570;-82
2023/08/31 03:53:16;;;;;;;7.03;3.42;;;;;;;-145.69;56.69;52028.53;5134359;27;20200;-82
2023/08/31 03:55:43;;;;;;;4.97;3.13;;;;;;;-145.69;56.72;52056.25;5133113;27;20189;-82
2023/08/31 03:58:09;;;;;;;4.22;2.90;;;;;;;-145.69;56.39;52022.59;5134505;28;20683;-82
2023/08/31 04:00:38;;;;;;;9.65;3.13;;;;;;;-145.69;56.36;52022.59;5134372;28;20197;-82
2023/08/31 04:03:05;;;;;;;6.18;2.65;;;;;;;-145.69;56.38;52028.53;5135660;27;20288;-82
2023/08/31 04:05:33;;;;;;;4.13;2.35;;;;;;;-145.69;56.14;51996.84;5137576;27;20243;-82
2023/08/31 04:08:00;;;;;;;6.28;3.20;;;;;;;-145.69;57.08;52014.66;5135846;27;20532;-82
2023/08/31 04:10:27;;;;;;;12.32;3.40;;;;;;;-145.69;56.25;52044.38;5137247;27;20212;-82
2023/08/31 04:12:53;;;;;;;4.05;2.80;;;;;;;-145.69;56.17;52024.56;5137579;27;20235;-82
2023/08/31 04:15:22;;;;;;;6.75;2.90;;;;;;;-145.69;55.28;52004.75;5137661;27;20197;-82
2023/08/31 04:17:50;;;;;;;5.57;2.70;;;;;;;-145.69;55.72;52016.66;5137449;27;20687;-82
2023/08/31 04:20:17;;;;;;;6.60;2.83;;;;;;;-145.69;55.84;52024.56;5137304;27;20656;-81
2023/08/31 04:22:43;;;;;;;7.97;2.70;;;;;;;-145.69;56.01;52016.66;5137077;27;20193;-82
2023/08/31 04:25:10;;;;;;;3.92;2.70;;;;;;;-145.69;56.00;52002.78;5137569;27;20241;-82
2023/08/31 04:27:39;;;;;;;4.53;2.60;;;;;;;-145.69;55.82;52032.47;5133045;27;20232;-82
2023/08/31 04:30:07;;;;;;;6.25;3.33;;;;;;;-145.69;55.72;51994.88;5137950;27;20253;-82
2023/08/31 04:32:35;;;;;;;4.65;2.58;;;;;;;-145.69;55.67;52012.69;5136890;27;20678;-82
2023/08/31 04:35:03;;;;;;;5.97;2.28;;;;;;;-145.69;55.59;52008.72;5137069;27;20253;-82
2023/08/31 04:37:33;;;;;;;9.23;2.45;;;;;;;-145.69;55.20;52004.75;5136894;27;20208;-82
2023/08/31 04:39:59;;;;;;;7.40;2.70;;;;;;;-145.69;55.66;52016.66;5137129;27;20193;-82
2023/08/31 04:42:26;;;;;;;5.32;2.88;;;;;;;-145.69;55.59;52020.59;5136781;27;20629;-82
2023/08/31 04:44:53;;;;;;;5.85;2.78;;;;;;;-145.69;55.59;51988.91;5137138;27;20655;-82
2023/08/31 04:47:19;;;;;;;4.65;2.83;;;;;;;-145.69;55.49;52010.69;5136720;27;20279;-82
2023/08/31 04:49:46;;;;;;;7.22;2.88;;;;;;;-145.69;55.49;52004.75;5137426;27;20197;-83
2023/08/31 04:52:14;;;;;;;8.20;2.92;;;;;;;-145.69;55.06;51992.88;5137533;27;20203;-82
2023/08/31 04:54:40;;;;;;;4.68;2.72;;;;;;;-145.69;55.56;52032.47;5137507;27;20197;-82
2023/08/31 04:57:08;;;;;;;9.18;3.33;;;;;;;-145.69;55.59;52030.50;5136769;27;20201;-81
2023/08/31 04:59:34;;;;;;;6.75;3.45;;;;;;;-145.69;55.75;52028.53;5135431;27;20758;-82
2023/08/31 05:02:02;;;;;;;7.60;3.15;;;;;;;-145.69;55.68;52000.81;5136260;27;20667;-82
2023/08/31 05:04:38;;;;;;;7.63;2.80;;;;;;;-145.69;55.32;52004.75;5136457;27;20208;-82
2023/08/31 05:07:04;;;;;;;3.47;2.70;;;;;;;-145.69;55.44;52018.63;5137275;27;20204;-82
2023/08/31 05:09:34;;;;;;;5.78;3.03;;;;;;;-145.69;55.27;52014.66;5136172;27;20193;-82
2023/08/31 05:12:03;;;;;;;5.18;3.20;;;;;;;-145.69;55.66;52036.44;5137265;27;20658;-82
2023/08/31 05:14:29;;;;;;;3.78;2.20;;;;;;;-145.69;55.46;52010.69;5136992;27;20253;-82
2023/08/31 05:17:00;;;;;;;5.47;2.80;;;;;;;-145.69;55.42;52000.81;5136658;27;20655;-82
2023/08/31 05:19:26;;;;;;;4.07;2.40;;;;;;;-145.69;55.45;52020.59;5136825;27;20753;-82
2023/08/31 05:21:53;;;;;;;6.20;2.97;;;;;;;-145.69;55.66;51998.81;5136874;27;20659;-82
2023/08/31 05:24:19;;;;;;;6.72;2.47;;;;;;;-145.69;55.71;52038.44;5136403;27;20287;-82
2023/08/31 05:26:47;;;;;;;3.10;2.40;;;;;;;-145.69;55.70;51977.03;5135807;27;20208;-82
2023/08/31 05:29:14;;;;;;;4.32;2.50;;;;;;;-145.69;55.74;51996.84;5136065;27;20200;-82
2023/08/31 05:31:41;;;;;;;3.42;2.40;;;;;;;-145.69;55.80;51996.84;5136543;27;20292;-82
2023/08/31 05:34:07;;;;;;;4.07;2.33;;;;;;;-145.69;55.69;52024.56;5136547;27;20200;-83
2023/08/31 05:36:34;;;;;;;4.40;2.60;;;;;;;-145.69;55.79;52022.59;5136309;27;20203;-83
2023/08/31 05:39:04;;;;;;;4.57;2.55;;;;;;;-145.69;55.29;52012.69;5135745;27;20329;-82
2023/08/31 05:41:30;;;;;;;6.88;2.88;;;;;;;-145.69;55.56;51990.91;5135988;27;20196;-83
2023/08/31 05:43:58;;;;;;;5.30;2.47;;;;;;;-145.69;55.28;51984.97;5135677;27;20234;-82
2023/08/31 05:46:25;;;;;;;8.18;2.35;;;;;;;-145.69;54.83;51984.97;5135590;27;20208;-82
2023/08/31 05:48:52;;;;;;;7.68;2.75;;;;;;;-145.69;54.25;52000.81;5137151;27;20205;-82
2023/08/31 05:51:18;;;;;;;7.47;2.80;;;;;;;-145.69;54.13;52000.81;5136900;27;20246;-82
2023/08/31 05:53:45;;;;;;;4.70;2.53;;;;;;;-145.69;54.21;51973.06;5136483;27;20197;-82
2023/08/31 05:56:14;;;;;;;5.00;2.28;;;;;;;-145.69;54.29;52012.69;5135465;27;20200;-82
2023/08/31 05:58:41;;;;;;;7.57;2.60;;;;;;;-145.69;54.13;52004.75;5135120;27;20319;-81
2023/08/31 06:01:10;;;;;;;5.25;2.50;;;;;;;-145.69;54.60;51992.88;5135361;27;20204;-82
2023/08/31 06:03:39;;;;;;;4.53;2.28;;;;;;;-145.69;53.88;51965.16;5135798;27;20196;-81
2023/08/31 06:06:06;;;;;;;3.75;2.05;;;;;;;-145.69;53.76;52000.81;5135792;27;20207;-82
2023/08/31 06:08:33;;;;;;;6.20;2.63;;;;;;;-145.69;54.13;51990.91;5135473;27;20193;-82
2023/08/31 06:10:59;;;;;;;8.73;2.35;;;;;;;-145.69;54.26;51992.88;5136143;27;20220;-81
2023/08/31 06:13:29;;;;;;;4.15;2.35;;;;;;;-145.69;53.83;52000.81;5135163;27;20284;-82
2023/08/31 06:15:57;;;;;;;7.38;2.47;;;;;;;-145.69;53.70;52012.69;5135139;27;20571;-82
2023/08/31 06:18:25;;;;;;;4.32;2.20;;;;;;;-145.69;53.70;51996.84;5135213;27;20226;-81
2023/08/31 06:20:52;;;;;;;4.68;2.10;;;;;;;-145.69;53.67;51981.00;5134547;27;20727;-81
2023/08/31 06:23:19;;;;;;;5.35;2.38;;;;;;;-145.69;52.84;51973.06;5134640;27;20242;-82
2023/08/31 06:25:45;;;;;;;5.78;2.38;;;;;;;-145.69;52.62;52012.69;5134434;27;20280;-82
2023/08/31 06:28:12;;;;;;;3.83;2.20;;;;;;;-145.69;52.52;52012.69;5131730;27;20190;-82
2023/08/31 06:30:40;;;;;;;6.50;2.20;;;;;;;-145.69;52.19;51990.91;5134615;27;20200;-82
2023/08/31 06:33:07;;;;;;;3.95;2.22;;;;;;;-145.69;52.08;51965.16;5134575;27;20195;-82
2023/08/31 06:35:34;;;;;;;5.07;2.00;;;;;;;-145.69;51.75;51953.28;5135144;27;20643;-82
2023/08/31 06:38:03;;;;;;;6.10;2.10;;;;;;;-145.69;50.19;51971.09;5134691;27;20593;-82
2023/08/31 06:40:33;;;;;;;8.63;2.30;;;;;;;-145.69;50.61;51973.06;5134170;27;20612;-82
2023/08/31 06:42:59;;;;;;;3.35;1.70;;;;;;;-145.69;49.94;51965.16;5134167;27;20564;-81
2023/08/31 06:45:26;;;;;;;5.75;2.08;;;;;;;-145.69;48.84;51965.16;5134266;27;20197;-81
2023/08/31 06:47:55;;;;;;;4.22;2.20;;;;;;;-145.69;49.07;51945.34;5134407;27;20196;-81
2023/08/31 06:50:24;;;;;;;5.40;2.08;;;;;;;-145.69;49.34;52000.81;5134089;27;20203;-81
2023/08/31 06:52:52;;;;;;;3.97;1.88;;;;;;;-145.69;49.95;51994.88;5133522;27;20511;-81
2023/08/31 06:55:21;;;;;;;4.72;2.08;;;;;;;-145.69;49.31;51941.41;5134994;27;20197;-82
2023/08/31 06:57:48;;;;;;;2.63;1.70;;;;;;;-145.69;48.94;51945.34;5134679;27;20196;-82
2023/08/31 07:00:15;;;;;;;3.20;2.00;;;;;;;-145.69;48.61;51957.25;5134839;27;20213;-82
2023/08/31 07:02:44;;;;;;;4.65;1.65;;;;;;;-145.69;47.74;51933.47;5134450;27;20245;-82
2023/08/31 07:05:11;;;;;;;7.67;2.40;;;;;;;-145.69;47.53;51963.19;5132677;27;20441;-82
2023/08/31 07:07:38;;;;;;;3.65;1.80;;;;;;;-145.69;45.95;51945.34;5134732;27;20228;-83
2023/08/31 07:10:07;;;;;;;4.28;1.83;;;;;;;-145.69;45.64;51959.22;5133851;27;20224;-82
2023/08/31 07:12:34;;;;;;;3.28;1.60;;;;;;;-145.69;45.50;51947.34;5134410;27;20269;-82
2023/08/31 07:15:00;;;;;;;6.22;1.80;;;;;;;-145.69;45.53;51941.41;5134092;27;20328;-82
2023/08/31 07:17:27;;;;;;;5.93;1.83;;;;;;;-145.69;44.75;51961.19;5135106;27;20704;-82
2023/08/31 07:19:54;;;;;;;8.68;2.05;;;;;;;-145.69;45.09;51973.06;5133463;27;20297;-82
2023/08/31 07:22:21;;;;;;;6.05;1.65;;;;;;;-145.69;44.51;51953.28;5133036;27;20197;-82
2023/08/31 07:24:48;;;;;;;4.90;1.85;;;;;;;-145.69;44.78;51977.03;5133799;27;20284;-82
2023/08/31 07:27:15;;;;;;;5.30;1.92;;;;;;;-145.69;44.87;51943.38;5133969;27;20257;-82
2023/08/31 07:29:42;;;;;;;6.65;1.75;;;;;;;-145.69;43.88;51988.91;5134061;27;20192;-81
2023/08/31 07:32:09;;;;;;;5.00;2.05;;;;;;;-145.69;44.68;51955.25;5134046;28;20193;-82
2023/08/31 07:34:36;;;;;;;2.80;1.70;;;;;;;-145.69;44.08;51933.47;5133573;27;20201;-82
2023/08/31 07:37:03;;;;;;;4.22;1.50;;;;;;;-145.69;44.22;51949.31;5133997;27;20623;-82
2023/08/31 07:39:30;;;;;;;4.90;1.42;;;;;;;-145.69;44.38;51909.72;5138008;27;20212;-81
2023/08/31 07:41:56;;;;;;;5.63;1.60;;;;;;;-145.69;43.95;51931.50;5137479;27;20200;-82
2023/08/31 07:44:27;;;;;;;6.07;1.73;;;;;;;-145.69;43.25;51913.69;5137673;27;20216;-81
2023/08/31 07:46:55;;;;;;;3.85;1.60;;;;;;;-145.69;41.95;51899.81;5138114;27;20224;-82
2023/08/31 07:49:22;;;;;;;4.35;1.67;;;;;;;-145.69;42.20;51919.63;5138452;27;20197;-82
2023/08/31 07:51:48;;;;;;;3.58;1.45;;;;;;;-145.69;41.59;51967.13;5138289;27;20193;-83
2023/08/31 07:54:20;;;;;;;4.88;1.83;;;;;;;-145.69;41.41;51913.69;5138320;27;20188;-82
2023/08/31 07:56:47;;;;;;;3.17;1.30;;;;;;;-145.69;41.10;51957.25;5138218;27;20678;-82
2023/08/31 07:59:14;;;;;;;3.60;1.65;;;;;;;-145.69;41.44;51949.31;5136895;27;20224;-81
2023/08/31 08:01:41;;;;;;;5.57;1.55;;;;;;;-145.69;41.63;51965.16;5137860;27;20196;-81
2023/08/31 08:04:08;;;;;;;5.15;1.67;;;;;;;-145.69;42.71;51957.25;5137565;27;20596;-81
2023/08/31 08:06:36;;;;;;;6.32;1.63;;;;;;;-145.69;42.69;51957.25;5138364;27;20301;-81
2023/08/31 08:09:04;;;;;;;5.13;1.67;;;;;;;-145.69;41.63;51941.41;5138997;27;20199;-81
2023/08/31 08:11:31;;;;;;;6.35;1.67;;;;;;;-145.69;42.43;51955.25;5137997;27;20197;-82
2023/08/31 08:13:57;;;;;;;6.32;1.52;;;;;;;-145.69;41.20;51949.31;5137568;27;20205;-81
2023/08/31 08:16:24;;;;;;;4.15;1.65;;;;;;;-145.69;42.08;51947.34;5137718;27;20193;-82
2023/08/31 08:18:53;;;;;;;8.60;1.80;;;;;;;-145.69;42.77;51921.59;5137864;27;20197;-82
2023/08/31 08:21:23;;;;;;;5.68;1.60;;;;;;;-145.69;40.57;51953.28;5138059;27;20201;-81
2023/08/31 08:23:50;;;;;;;4.32;1.50;;;;;;;-145.69;40.25;51963.19;5137610;27;20560;-81
2023/08/31 08:26:19;;;;;;;4.93;1.92;;;;;;;-145.69;40.16;51925.56;5135587;27;20229;-82
2023/08/31 08:28:48;;;;;;;4.82;1.65;;;;;;;-145.69;39.15;51925.56;5137188;27;20209;-82
2023/08/31 08:31:18;;;;;;;2.10;1.30;;;;;;;-145.69;38.98;51937.44;5137329;27;20444;-82
2023/08/31 08:33:44;;;;;;;4.95;1.40;;;;;;;-145.69;39.34;51901.78;5138441;27;20199;-81
2023/08/31 08:36:15;;;;;;;9.18;1.80;;;;;;;-145.69;37.83;51937.44;5138147;27;20222;-81
2023/08/31 08:38:42;;;;;;;5.55;1.67;;;;;;;-145.69;38.27;51911.69;5137254;27;20201;-80
2023/08/31 08:41:11;;;;;;;4.38;1.55;;;;;;;-145.69;39.15;51927.53;5136717;27;20655;-82
2023/08/31 08:43:40;;;;;;;5.53;1.63;;;;;;;-145.69;36.83;51921.59;5136787;27;20232;-82
2023/08/31 08:46:07;;;;;;;5.50;1.65;;;;;;;-145.69;38.40;51957.25;5137141;27;20200;-81
2023/08/31 08:48:35;;;;;;;5.90;1.60;;;;;;;-145.69;38.86;51905.75;5136647;27;20200;-80
2023/08/31 08:51:03;;;;;;;7.13;1.58;;;;;;;-145.69;38.63;51945.34;5136497;27;20647;-81
2023/08/31 08:53:31;;;;;;;7.07;1.88;;;;;;;-145.69;37.09;51907.72;5137180;27;20204;-81
2023/08/31 08:55:59;;;;;;;4.45;1.40;;;;;;;-145.69;37.58;51893.88;5136708;27;20197;-81
2023/08/31 08:58:25;;;;;;;6.60;1.60;;;;;;;-145.69;37.46;51935.47;5137401;27;20205;-81
2023/08/31 09:00:55;;;;;;;5.50;1.60;;;;;;;-145.69;36.50;51923.56;5136584;27;20220;-81
2023/08/31 09:03:21;;;;;;;6.20;1.75;;;;;;;-145.69;37.00;51913.69;5136787;27;20192;-82
2023/08/31 09:05:48;;;;;;;3.65;1.63;;;;;;;-145.69;37.52;51919.63;5137175;27;20596;-80
2023/08/31 09:08:15;;;;;;;4.88;1.30;;;;;;;-145.69;38.33;51903.78;5136126;27;20578;-80
2023/08/31 09:10:44;;;;;;;4.03;1.17;;;;;;;-145.69;37.22;51874.06;5136411;27;20272;-81
2023/08/31 09:13:12;;;;;;;5.57;1.40;;;;;;;-145.69;35.68;51917.63;5136462;27;20651;-81
2023/08/31 09:15:43;;;;;;;3.80;1.35;;;;;;;-145.69;36.01;51909.72;5136542;27;20280;-81
2023/08/31 09:18:16;;;;;;;6.32;1.65;;;;;;;-145.69;35.46;51885.94;5136346;27;20283;-80
2023/08/31 09:20:48;;;;;;;4.63;1.48;;;;;;;-145.69;35.30;51901.78;5136171;27;20231;-81
2023/08/31 09:23:18;;;;;;;5.75;1.48;;;;;;;-145.69;35.34;51874.06;5136699;27;20630;-81
2023/08/31 09:25:48;;;;;;;4.47;1.50;;;;;;;-145.69;34.81;51895.84;5136648;27;20213;-81
2023/08/31 09:28:20;;;;;;;4.35;1.38;;;;;;;-145.69;35.34;51897.84;5135577;27;20193;-81
2023/08/31 09:30:47;;;;;;;6.03;1.48;;;;;;;-145.69;34.66;51925.56;5136563;27;20716;-81
2023/08/31 09:33:16;;;;;;;4.72;1.23;;;;;;;-145.69;34.60;51895.84;5135876;27;20272;-81
2023/08/31 09:35:48;;;;;;;9.77;1.52;;;;;;;-145.69;34.83;51913.69;5136713;27;20275;-81
2023/08/31 09:38:16;;;;;;;4.35;1.55;;;;;;;-145.69;33.32;51897.84;5135771;27;20195;-81
2023/08/31 09:40:42;;;;;;;5.38;1.35;;;;;;;-145.69;33.10;51895.84;5136532;27;20235;-82
2023/08/31 09:43:10;;;;;;;3.88;1.33;;;;;;;-145.69;33.53;51889.91;5135228;27;20232;-80
2023/08/31 09:45:41;;;;;;;3.58;1.48;;;;;;;-145.69;34.12;51915.66;5136169;27;20204;-81
2023/08/31 09:48:08;;;;;;;6.68;1.58;;;;;;;-145.69;33.49;51883.97;5135643;27;20279;-81
2023/08/31 09:50:35;;;;;;;3.92;1.40;;;;;;;-145.69;33.49;51941.41;5135891;27;20207;-79
2023/08/31 09:53:05;;;;;;;7.55;1.92;;;;;;;-145.69;32.86;51913.69;5133671;27;21017;-81
2023/08/31 09:55:32;;;;;;;5.25;1.35;;;;;;;-145.69;34.06;51860.22;5136134;27;20196;-81
2023/08/31 09:58:00;;;;;;;6.82;1.83;;;;;;;-145.69;33.67;51885.94;5135674;27;20551;-81
2023/08/31 10:00:30;;;;;;;4.60;1.50;;;;;;;-145.69;33.48;51854.28;5134352;27;20307;-81
2023/08/31 10:03:01;;;;;;;3.85;1.40;;;;;;;-145.69;32.86;51874.06;5134870;27;20196;-82
2023/08/31 10:05:28;;;;;;;6.13;1.60;;;;;;;-145.69;33.90;51885.94;5135488;27;20200;-82
2023/08/31 10:08:10;;;;;;;3.38;1.30;;;;;;;-145.69;33.83;51885.94;5135262;27;20201;-78
2023/08/31 10:10:38;;;;;;;6.32;1.73;;;;;;;-145.69;32.27;51897.84;5132310;27;20207;-81
2023/08/31 10:13:06;;;;;;;4.30;1.30;;;;;;;-145.69;32.07;51878.03;5135617;27;20200;-80
2023/08/31 10:15:35;;;;;;;5.32;1.83;;;;;;;-145.69;33.59;51870.13;5135961;27;20196;-80
2023/08/31 10:18:05;;;;;;;5.97;1.67;;;;;;;-145.69;33.25;51887.94;5134329;27;20189;-79
2023/08/31 10:20:34;;;;;;;5.05;1.77;;;;;;;-145.69;31.50;51878.03;5135285;27;20247;-80
2023/08/31 10:23:03;;;;;;;7.22;1.60;;;;;;;-145.69;32.18;51905.75;5135147;27;20232;-81
2023/08/31 10:26:04;;;;;;;6.72;1.80;;;;;;;-145.69;31.58;51901.78;5134652;27;20556;-80
2023/08/31 10:28:40;;;;;;;4.90;1.60;;;;;;;-145.69;31.86;51870.13;5129061;27;20191;-80
2023/08/31 10:31:10;;;;;;;5.68;1.50;;;;;;;-145.69;33.04;51862.19;5134917;27;20207;-81
2023/08/31 10:33:42;;;;;;;9.43;1.65;;;;;;;-145.69;32.42;51854.28;5134592;27;20201;-81
2023/08/31 10:36:14;;;;;;;3.90;1.40;;;;;;;-145.69;33.07;51882.00;5128792;27;20225;-80
2023/08/31 10:38:42;;;;;;;5.22;1.50;;;;;;;-145.69;33.85;51903.78;5134683;27;20655;-80
2023/08/31 10:41:33;;;;;;;5.88;1.30;;;;;;;-145.69;31.54;51878.03;5135103;27;20695;-80
2023/08/31 10:44:00;;;;;;;6.63;1.70;;;;;;;-145.69;33.59;51880.00;5134411;27;20247;-81
2023/08/31 10:46:33;;;;;;;4.05;1.50;;;;;;;-145.69;32.90;51882.00;5134332;27;20291;-81
2023/08/31 10:49:00;;;;;;;4.05;1.40;;;;;;;-145.69;34.02;51893.88;5134645;27;20546;-81
2023/08/31 10:51:32;;;;;;;4.93;1.70;;;;;;;-145.69;33.13;51870.13;5134761;27;20207;-82
2023/08/31 10:54:13;;;;;;;4.30;1.33;;;;;;;-145.69;32.50;51878.03;5134692;27;20200;-81
2023/08/31 10:57:06;;;;;;;8.13;1.80;;;;;;;-145.69;32.34;51878.03;5114106;28;20209;-82
2023/08/31 10:59:52;;;;;;;6.70;1.77;;;;;;;-145.69;32.92;51876.06;5113980;28;20291;-81
2023/08/31 11:02:31;;;;;;;7.53;1.50;;;;;;;-145.69;32.99;51876.06;5113986;28;20206;-81
2023/08/31 11:05:03;;;;;;;4.88;1.67;;;;;;;-145.69;32.25;51874.06;5122043;27;20242;-81
2023/08/31 11:07:30;;;;;;;5.70;1.42;;;;;;;-145.69;33.44;51874.06;5133887;27;20197;-79
2023/08/31 11:10:11;;;;;;;5.43;1.27;;;;;;;-145.69;32.41;51854.28;5134296;27;20295;-82
2023/08/31 11:12:41;;;;;;;3.40;1.30;;;;;;;-145.69;33.84;51850.31;5133810;27;20291;-81
2023/08/31 11:15:14;;;;;;;3.97;1.45;;;;;;;-145.69;32.95;51893.88;5134075;27;20196;-82
2023/08/31 11:17:42;;;;;;;5.87;1.80;;;;;;;-145.69;32.86;51874.06;5132511;27;20486;-80
2023/08/31 11:20:10;;;;;;;7.05;2.03;;;;;;;-145.69;32.77;51856.25;5134490;27;20227;-81
2023/08/31 11:22:43;;;;;;;5.10;1.40;;;;;;;-145.69;32.28;51862.19;5133308;27;20197;-83